Time;durP1;ratioP1;P1;durP2;ratioP2;P2;SDS_P1;SDS_P2;PMS_P1;PMS_P2;Temp;Humidity;BMP_temperature;BMP_pressure;BME280_temperature;BME280_humidity;BME280_pressure;Samples;Min_cycle;Max_cycle;Signal;HPM_P1;HPM_P2
2022/07/06 00:01:40;;;;;;;4.57;2.10;;;;;;;;;;5072957;27;98426;-76
2022/07/06 00:04:07;;;;;;;5.93;2.00;;;;;;;;;;5074206;27;95428;-76
2022/07/06 00:06:33;;;;;;;5.80;1.70;;;;;;;;;;5069411;27;96841;-76
2022/07/06 00:09:00;;;;;;;5.00;1.90;;;;;;;;;;5056293;27;97379;-76
2022/07/06 00:11:26;;;;;;;4.95;2.30;;;;;;;;;;5064883;27;96807;-76
2022/07/06 00:13:52;;;;;;;5.15;1.80;;;;;;;;;;5070917;27;97372;-75
2022/07/06 00:16:19;;;;;;;6.40;1.98;;;;;;;;;;5073566;27;95294;-76
2022/07/06 00:18:45;;;;;;;3.58;2.00;;;;;;;;;;5073929;27;96758;-76
2022/07/06 00:21:12;;;;;;;7.07;2.20;;;;;;;;;;5072589;27;97452;-75
2022/07/06 00:23:38;;;;;;;7.07;2.10;;;;;;;;;;5066141;27;95424;-75
2022/07/06 00:26:05;;;;;;;8.68;1.83;;;;;;;;;;5053204;27;96800;-75
2022/07/06 00:28:31;;;;;;;8.65;2.38;;;;;;;;;;5052405;27;97422;-76
2022/07/06 00:30:58;;;;;;;9.32;2.08;;;;;;;;;;5059897;27;95317;-76
2022/07/06 00:33:24;;;;;;;5.57;1.98;;;;;;;;;;5071495;27;97252;-76
2022/07/06 00:35:51;;;;;;;6.18;1.80;;;;;;;;;;5073631;27;95529;-76
2022/07/06 00:38:17;;;;;;;7.05;2.08;;;;;;;;;;5072883;27;96759;-75
2022/07/06 00:40:44;;;;;;;7.20;2.33;;;;;;;;;;5071917;27;97390;-76
2022/07/06 00:43:10;;;;;;;5.07;2.60;;;;;;;;;;5055646;27;95108;-76
2022/07/06 00:45:37;;;;;;;4.70;2.00;;;;;;;;;;5051755;27;96930;-75
2022/07/06 00:48:03;;;;;;;6.70;1.90;;;;;;;;;;5051753;27;97408;-75
2022/07/06 00:50:30;;;;;;;4.68;1.90;;;;;;;;;;5059172;27;95556;-76
2022/07/06 00:52:59;;;;;;;5.28;2.00;;;;;;;;;;5069150;27;97366;-77
2022/07/06 00:55:27;;;;;;;5.32;2.00;;;;;;;;;;5071980;27;95412;-76
2022/07/06 00:57:53;;;;;;;4.25;1.98;;;;;;;;;;5072873;27;96878;-76
2022/07/06 01:00:21;;;;;;;5.20;1.80;;;;;;;;;;5065644;27;96418;-76
2022/07/06 01:02:48;;;;;;;4.60;2.00;;;;;;;;;;5070394;27;95685;-76
2022/07/06 01:05:15;;;;;;;4.22;1.75;;;;;;;;;;5072988;27;96658;-76
2022/07/06 01:07:42;;;;;;;5.38;1.88;;;;;;;;;;5072538;27;97552;-76
2022/07/06 01:10:09;;;;;;;5.05;2.20;;;;;;;;;;5067372;27;95394;-76
2022/07/06 01:12:36;;;;;;;6.00;1.98;;;;;;;;;;5066817;27;96808;-76
2022/07/06 01:15:04;;;;;;;7.43;2.05;;;;;;;;;;5072188;27;95961;-76
2022/07/06 01:17:30;;;;;;;2.92;1.70;;;;;;;;;;5073192;27;96808;-76
2022/07/06 01:19:56;;;;;;;5.65;1.95;;;;;;;;;;5072305;27;96223;-76
2022/07/06 01:22:23;;;;;;;6.22;1.80;;;;;;;;;;5063336;27;95275;-76
2022/07/06 01:24:49;;;;;;;5.20;1.90;;;;;;;;;;5075805;27;96985;-76
2022/07/06 01:27:15;;;;;;;5.65;1.88;;;;;;;;;;5075625;27;97361;-75
2022/07/06 01:29:42;;;;;;;7.78;2.17;;;;;;;;;;5075210;27;96687;-75
2022/07/06 01:32:08;;;;;;;6.35;1.90;;;;;;;;;;5071286;27;96790;-76
2022/07/06 01:34:35;;;;;;;8.77;2.13;;;;;;;;;;5077356;27;98010;-76
2022/07/06 01:37:01;;;;;;;6.30;1.98;;;;;;;;;;5075243;27;96609;-76
2022/07/06 01:39:27;;;;;;;4.53;1.98;;;;;;;;;;5075135;27;96954;-75
2022/07/06 01:41:54;;;;;;;7.80;1.98;;;;;;;;;;5061905;27;96287;-76
2022/07/06 01:44:20;;;;;;;3.88;1.90;;;;;;;;;;5075154;27;96472;-76
2022/07/06 01:46:46;;;;;;;4.07;2.00;;;;;;;;;;5075529;27;97416;-76
2022/07/06 01:49:13;;;;;;;4.28;2.00;;;;;;;;;;5075720;27;95125;-77
2022/07/06 01:51:39;;;;;;;5.22;2.00;;;;;;;;;;5061673;27;96709;-76
2022/07/06 01:54:05;;;;;;;5.95;2.20;;;;;;;;;;5075607;27;97293;-77
2022/07/06 01:56:32;;;;;;;6.50;1.88;;;;;;;;;;5078490;27;95201;-76
2022/07/06 01:58:58;;;;;;;8.43;2.03;;;;;;;;;;5067071;27;97350;-76
2022/07/06 02:01:24;;;;;;;8.32;2.08;;;;;;;;;;5054545;27;95302;-76
2022/07/06 02:03:51;;;;;;;3.63;1.73;;;;;;;;;;5072481;27;96814;-76
2022/07/06 02:06:17;;;;;;;6.15;1.90;;;;;;;;;;5074064;27;96253;-76
2022/07/06 02:08:43;;;;;;;2.92;1.75;;;;;;;;;;5070079;27;95198;-76
2022/07/06 02:11:10;;;;;;;7.80;2.35;;;;;;;;;;5054916;27;97120;-77
2022/07/06 02:13:36;;;;;;;4.63;1.90;;;;;;;;;;5068566;27;96368;-76
2022/07/06 02:16:03;;;;;;;5.30;2.00;;;;;;;;;;5074636;27;95369;-77
2022/07/06 02:18:29;;;;;;;3.70;1.80;;;;;;;;;;5063217;27;96785;-76
2022/07/06 02:20:56;;;;;;;8.27;2.00;;;;;;;;;;5058859;27;95239;-76
2022/07/06 02:23:22;;;;;;;5.55;1.98;;;;;;;;;;5074076;27;96779;-76
2022/07/06 02:25:49;;;;;;;8.25;1.80;;;;;;;;;;5073886;27;97296;-76
2022/07/06 02:28:15;;;;;;;5.07;1.88;;;;;;;;;;5062450;27;96238;-74
2022/07/06 02:30:41;;;;;;;8.82;2.20;;;;;;;;;;5054483;27;96854;-76
2022/07/06 02:33:07;;;;;;;5.90;1.90;;;;;;;;;;5061325;27;97338;-76
2022/07/06 02:35:34;;;;;;;2.88;1.63;;;;;;;;;;5072017;27;95793;-76
2022/07/06 02:38:00;;;;;;;8.38;2.10;;;;;;;;;;5054383;27;96480;-76
2022/07/06 02:40:26;;;;;;;5.97;1.92;;;;;;;;;;5056872;27;97477;-76
2022/07/06 02:42:53;;;;;;;4.63;1.80;;;;;;;;;;5063986;27;96783;-76
2022/07/06 02:45:19;;;;;;;4.25;1.80;;;;;;;;;;5074128;27;97317;-76
2022/07/06 02:47:45;;;;;;;4.63;1.73;;;;;;;;;;5071145;27;95264;-76
2022/07/06 02:50:12;;;;;;;3.42;2.00;;;;;;;;;;5074935;27;96807;-77
2022/07/06 02:52:38;;;;;;;5.80;1.88;;;;;;;;;;5073310;27;97236;-76
2022/07/06 02:55:06;;;;;;;5.03;1.95;;;;;;;;;;5074084;27;95372;-76
2022/07/06 02:57:33;;;;;;;6.53;1.90;;;;;;;;;;5058304;27;96746;-76
2022/07/06 02:59:59;;;;;;;4.22;1.90;;;;;;;;;;5058519;27;97387;-76
2022/07/06 03:02:25;;;;;;;8.65;2.67;;;;;;;;;;5073894;27;96879;-76
2022/07/06 03:04:52;;;;;;;7.10;1.85;;;;;;;;;;5072375;27;96123;-75
2022/07/06 03:07:18;;;;;;;5.75;1.98;;;;;;;;;;5059927;27;95198;-76
2022/07/06 03:09:44;;;;;;;5.75;1.88;;;;;;;;;;5053438;27;96704;-74
2022/07/06 03:12:11;;;;;;;5.75;2.03;;;;;;;;;;5053878;27;97238;-76
2022/07/06 03:14:37;;;;;;;5.78;1.80;;;;;;;;;;5066512;27;95209;-76
2022/07/06 03:17:04;;;;;;;4.90;2.03;;;;;;;;;;5066509;27;96934;-76
2022/07/06 03:19:30;;;;;;;4.43;1.70;;;;;;;;;;5071268;27;97453;-76
2022/07/06 03:21:56;;;;;;;4.07;1.60;;;;;;;;;;5077483;27;95427;-76
2022/07/06 03:24:23;;;;;;;4.10;1.83;;;;;;;;;;5072461;27;97954;-76
2022/07/06 03:26:49;;;;;;;6.60;1.70;;;;;;;;;;5072325;27;95334;-76
2022/07/06 03:29:15;;;;;;;5.32;1.55;;;;;;;;;;5073434;27;96768;-74
2022/07/06 03:31:41;;;;;;;3.83;1.70;;;;;;;;;;5074095;27;97068;-76
2022/07/06 03:34:08;;;;;;;5.35;1.85;;;;;;;;;;5072953;27;95362;-76
2022/07/06 03:36:34;;;;;;;5.93;1.75;;;;;;;;;;5068957;27;96903;-77
2022/07/06 03:39:04;;;;;;;2.47;1.30;;;;;;;;;;5064083;27;96190;-76
2022/07/06 03:41:32;;;;;;;3.38;1.90;;;;;;;;;;5072259;27;95131;-77
2022/07/06 03:43:58;;;;;;;6.82;1.70;;;;;;;;;;5075437;27;96712;-76
2022/07/06 03:46:25;;;;;;;3.15;1.50;;;;;;;;;;5071919;27;95616;-76
2022/07/06 03:48:51;;;;;;;3.58;1.42;;;;;;;;;;5073897;27;97193;-76
2022/07/06 03:51:17;;;;;;;5.88;1.65;;;;;;;;;;5072795;27;97411;-76
2022/07/06 03:53:44;;;;;;;8.55;2.00;;;;;;;;;;5070832;27;95613;-76
2022/07/06 03:56:28;;;;;;;5.43;1.85;;;;;;;;;;5053979;27;96807;-75
2022/07/06 03:58:55;;;;;;;4.70;1.50;;;;;;;;;;5052676;27;97462;-75
2022/07/06 04:01:22;;;;;;;6.70;2.10;;;;;;;;;;5062403;27;95389;-75
2022/07/06 04:03:48;;;;;;;5.55;1.65;;;;;;;;;;5072478;27;97373;-77
2022/07/06 04:06:15;;;;;;;5.30;1.50;;;;;;;;;;5073916;27;97315;-77
2022/07/06 04:08:41;;;;;;;6.60;1.75;;;;;;;;;;5073627;27;96454;-77
2022/07/06 04:11:08;;;;;;;5.35;1.45;;;;;;;;;;5073308;27;97664;-77
2022/07/06 04:13:34;;;;;;;4.13;1.50;;;;;;;;;;5073003;27;95363;-78
2022/07/06 04:16:00;;;;;;;3.47;1.52;;;;;;;;;;5072267;27;96828;-77
2022/07/06 04:18:27;;;;;;;5.22;1.90;;;;;;;;;;5068134;27;98044;-77
2022/07/06 04:20:54;;;;;;;3.45;1.20;;;;;;;;;;5073340;27;95366;-77
2022/07/06 04:23:20;;;;;;;5.40;1.73;;;;;;;;;;5073227;27;96600;-77
2022/07/06 20:36:50;;;;;;;4.15;2.20;;;;;;;;;;5020401;27;96204;-76
2022/07/06 20:39:16;;;;;;;5.68;2.72;;;;;;;;;;5017696;27;97720;-77
2022/07/06 20:41:42;;;;;;;5.38;2.92;;;;;;;;;;5026572;28;95313;-76
2022/07/06 20:44:09;;;;;;;6.97;3.15;;;;;;;;;;5024420;27;96227;-78
2022/07/06 20:46:35;;;;;;;5.30;2.58;;;;;;;;;;5009864;27;97460;-76
2022/07/06 20:49:02;;;;;;;4.78;2.70;;;;;;;;;;5010147;28;96044;-76
2022/07/06 20:51:29;;;;;;;4.80;2.90;;;;;;;;;;5011814;28;96822;-74
2022/07/06 20:53:55;;;;;;;4.50;2.83;;;;;;;;;;5021903;27;97591;-76
2022/07/06 20:56:22;;;;;;;6.30;2.97;;;;;;;;;;5024356;27;96136;-76
2022/07/06 20:58:48;;;;;;;6.15;3.00;;;;;;;;;;5025879;27;96184;-76
2022/07/06 21:01:34;;;;;;;17.58;3.13;;;;;;;;;;5027275;27;96680;-76
2022/07/06 21:04:01;;;;;;;6.18;3.00;;;;;;;;;;5024237;27;96766;-75
2022/07/06 21:06:28;;;;;;;7.95;2.97;;;;;;;;;;5014449;27;97552;-76
2022/07/06 21:08:54;;;;;;;6.65;2.92;;;;;;;;;;5009294;27;95351;-76
2022/07/06 21:11:21;;;;;;;8.00;3.40;;;;;;;;;;5021771;27;97298;-76
2022/07/06 21:13:47;;;;;;;8.07;3.15;;;;;;;;;;5022936;27;97498;-76
2022/07/06 21:16:14;;;;;;;5.22;3.25;;;;;;;;;;5021328;27;96450;-76
2022/07/06 21:18:40;;;;;;;7.70;3.33;;;;;;;;;;5031805;28;95673;-76
2022/07/06 21:21:07;;;;;;;5.47;3.40;;;;;;;;;;5029348;27;95364;-76
2022/07/06 21:23:35;;;;;;;11.10;3.63;;;;;;;;;;5027694;27;96285;-76
2022/07/06 21:26:03;;;;;;;6.68;3.13;;;;;;;;;;5012250;27;97367;-75
2022/07/06 21:28:29;;;;;;;6.45;3.38;;;;;;;;;;5008942;28;95325;-76
2022/07/06 21:30:55;;;;;;;8.20;3.67;;;;;;;;;;5008970;28;96792;-74
2022/07/06 21:33:25;;;;;;;10.60;3.75;;;;;;;;;;5032085;27;97651;-75
2022/07/06 21:35:52;;;;;;;6.00;3.55;;;;;;;;;;5035753;27;96437;-75
2022/07/06 21:38:19;;;;;;;6.80;3.33;;;;;;;;;;5027903;27;96859;-75
2022/07/06 21:40:46;;;;;;;9.35;3.42;;;;;;;;;;5011756;27;98463;-75
2022/07/06 21:43:12;;;;;;;6.85;3.38;;;;;;;;;;5008870;28;97025;-76
2022/07/06 21:45:38;;;;;;;6.90;4.18;;;;;;;;;;5019562;27;97341;-76
2022/07/06 21:48:05;;;;;;;9.18;3.97;;;;;;;;;;5002351;28;97555;-76
2022/07/06 21:50:31;;;;;;;8.82;4.25;;;;;;;;;;5015221;28;96814;-75
2022/07/06 21:52:57;;;;;;;7.15;4.13;;;;;;;;;;5014153;28;97352;-76
2022/07/06 21:55:24;;;;;;;11.15;4.57;;;;;;;;;;5009045;28;96877;-75
2022/07/06 21:57:50;;;;;;;7.22;4.38;;;;;;;;;;4995272;28;96922;-76
2022/07/06 22:00:17;;;;;;;6.57;4.35;;;;;;;;;;5015749;28;97291;-75
2022/07/06 22:02:43;;;;;;;9.68;4.22;;;;;;;;;;5001032;28;95303;-75
2022/07/06 22:05:10;;;;;;;8.52;3.90;;;;;;;;;;4995663;28;97487;-75
2022/07/06 22:07:36;;;;;;;7.20;3.90;;;;;;;;;;5013118;28;95337;-77
2022/07/06 22:10:03;;;;;;;6.15;3.83;;;;;;;;;;5018461;28;96789;-76
2022/07/06 22:12:29;;;;;;;8.63;4.65;;;;;;;;;;5009692;28;97352;-74
2022/07/06 22:14:56;;;;;;;8.15;4.03;;;;;;;;;;4993641;28;95393;-75
2022/07/06 22:17:22;;;;;;;7.43;4.10;;;;;;;;;;4994742;28;96821;-75
2022/07/06 22:19:49;;;;;;;7.13;4.07;;;;;;;;;;4994739;28;97054;-76
2022/07/06 22:22:20;;;;;;;;;;;;;;;;;;5000114;28;95186;-75
2022/07/06 22:24:47;;;;;;;10.38;3.78;;;;;;;;;;5016764;28;126437;-76
2022/07/06 22:27:13;;;;;;;7.07;3.97;;;;;;;;;;5010246;28;95391;-75
2022/07/06 22:29:39;;;;;;;9.32;4.30;;;;;;;;;;5018925;28;96752;-76
2022/07/06 22:32:06;;;;;;;7.78;4.82;;;;;;;;;;5012880;28;97287;-76
2022/07/06 22:34:32;;;;;;;8.75;4.65;;;;;;;;;;5013069;28;95459;-76
2022/07/06 22:36:59;;;;;;;8.07;4.50;;;;;;;;;;5012970;28;96720;-76
2022/07/06 22:39:25;;;;;;;8.60;4.50;;;;;;;;;;5004673;28;96930;-75
2022/07/06 22:41:51;;;;;;;7.70;4.40;;;;;;;;;;5004559;28;95220;-75
2022/07/06 22:44:18;;;;;;;6.38;4.43;;;;;;;;;;4993958;28;96860;-76
2022/07/06 22:46:44;;;;;;;7.35;4.20;;;;;;;;;;4997768;28;95269;-74
2022/07/06 22:49:11;;;;;;;8.73;4.68;;;;;;;;;;4995323;28;96878;-77
2022/07/06 22:51:37;;;;;;;9.43;4.88;;;;;;;;;;4993342;28;96019;-76
2022/07/06 22:54:03;;;;;;;8.00;4.63;;;;;;;;;;4999915;28;96072;-75
2022/07/06 22:56:30;;;;;;;8.75;4.85;;;;;;;;;;4995599;28;96505;-76
2022/07/06 22:58:57;;;;;;;10.48;5.18;;;;;;;;;;4992771;28;97384;-76
2022/07/06 23:01:23;;;;;;;7.15;4.80;;;;;;;;;;4994865;28;95330;-76
2022/07/06 23:03:49;;;;;;;12.30;5.28;;;;;;;;;;4993435;28;96827;-76
2022/07/06 23:06:17;;;;;;;8.48;5.03;;;;;;;;;;4996673;28;97296;-75
2022/07/06 23:08:44;;;;;;;8.13;5.20;;;;;;;;;;4994420;28;96790;-75
2022/07/06 23:11:10;;;;;;;12.43;5.97;;;;;;;;;;4994142;28;97033;-76
2022/07/06 23:13:36;;;;;;;9.27;5.43;;;;;;;;;;4994037;28;96214;-76
2022/07/06 23:16:04;;;;;;;11.93;5.95;;;;;;;;;;4994259;28;97072;-76
2022/07/06 23:18:31;;;;;;;11.07;6.13;;;;;;;;;;4997780;28;96408;-75
2022/07/06 23:20:57;;;;;;;10.60;5.85;;;;;;;;;;4993893;28;95342;-76
2022/07/06 23:23:24;;;;;;;11.05;6.28;;;;;;;;;;4992586;28;96598;-75
2022/07/06 23:25:51;;;;;;;12.98;6.03;;;;;;;;;;4998669;28;97321;-76
2022/07/06 23:28:17;;;;;;;15.93;6.35;;;;;;;;;;5011738;28;95829;-75
2022/07/06 23:30:43;;;;;;;9.27;6.32;;;;;;;;;;5002831;28;97423;-75
2022/07/06 23:33:10;;;;;;;12.52;6.38;;;;;;;;;;4993866;28;95310;-76
2022/07/06 23:35:36;;;;;;;13.07;6.55;;;;;;;;;;5005570;28;96739;-75
2022/07/06 23:38:02;;;;;;;10.43;5.88;;;;;;;;;;5012183;28;97262;-77
2022/07/06 23:40:29;;;;;;;10.63;6.53;;;;;;;;;;4993426;28;95302;-76
2022/07/06 23:42:55;;;;;;;10.88;5.85;;;;;;;;;;4993355;28;96791;-77
2022/07/06 23:45:21;;;;;;;10.40;5.90;;;;;;;;;;4993176;28;97425;-77
2022/07/06 23:47:48;;;;;;;13.40;6.22;;;;;;;;;;4993069;28;95216;-76
2022/07/06 23:50:14;;;;;;;16.52;6.60;;;;;;;;;;5011047;28;96750;-76
2022/07/06 23:52:41;;;;;;;9.00;6.03;;;;;;;;;;5007888;28;97294;-77
2022/07/06 23:55:07;;;;;;;15.15;6.53;;;;;;;;;;5009270;28;96851;-77
2022/07/06 23:57:34;;;;;;;12.13;6.38;;;;;;;;;;5012712;28;96346;-75
